createdAt,value
2023-09-10T00:00:28.610Z,9.30
2023-09-10T00:03:21.865Z,9.90
2023-09-10T00:05:55.106Z,9.20
2023-09-10T00:08:30.107Z,9.10
2023-09-10T00:11:06.358Z,9.20
2023-09-10T00:13:40.432Z,9.80
2023-09-10T00:16:13.786Z,9.50
2023-09-10T00:18:47.120Z,9.50
2023-09-10T00:21:20.220Z,9.30
2023-09-10T00:23:53.314Z,10.00
2023-09-10T00:26:28.168Z,10.60
2023-09-10T00:29:01.325Z,9.70
2023-09-10T00:31:35.708Z,10.10
2023-09-10T00:34:11.114Z,9.70
2023-09-10T00:36:44.552Z,10.40
2023-09-10T00:39:19.336Z,10.30
2023-09-10T00:41:55.067Z,9.40
2023-09-10T00:44:28.138Z,10.10
2023-09-10T00:47:01.588Z,10.10
2023-09-10T00:49:35.381Z,10.10
2023-09-10T00:52:10.573Z,10.10
2023-09-10T00:54:44.153Z,10.40
2023-09-10T00:57:18.345Z,10.40
2023-09-10T00:59:51.799Z,11.30
2023-09-10T01:02:25.739Z,10.80
2023-09-10T01:04:59.084Z,11.20
2023-09-10T01:07:35.458Z,10.80
2023-09-10T01:10:10.598Z,10.60
2023-09-10T01:12:55.713Z,10.70
2023-09-10T01:15:34.882Z,11.40
2023-09-10T01:18:18.544Z,11.30
2023-09-10T01:21:15.834Z,10.90
2023-09-10T01:23:59.977Z,10.70
2023-09-10T01:26:33.417Z,10.40
2023-09-10T01:29:06.710Z,10.50
2023-09-10T01:31:44.689Z,11.20
2023-09-10T01:34:22.697Z,11.30
2023-09-10T01:37:08.000Z,11.60
2023-09-10T01:39:47.581Z,10.80
2023-09-10T01:42:21.052Z,11.10
2023-09-10T01:44:58.544Z,11.50
2023-09-10T01:47:34.455Z,10.60
2023-09-10T01:50:15.481Z,10.90
2023-09-10T01:52:51.133Z,10.50
2023-09-10T01:55:25.795Z,10.80
2023-09-10T01:58:04.521Z,11.40
2023-09-10T02:00:38.965Z,11.70
2023-09-10T02:03:13.986Z,11.60
2023-09-10T02:05:48.375Z,11.90
2023-09-10T02:08:22.707Z,11.60
2023-09-10T02:10:56.980Z,12.30
2023-09-10T02:13:31.197Z,11.60
2023-09-10T02:16:06.405Z,11.60
2023-09-10T02:18:46.747Z,11.80
2023-09-10T02:21:23.230Z,11.70
2023-09-10T02:23:56.626Z,11.80
2023-09-10T02:26:34.050Z,12.00
2023-09-10T02:29:14.135Z,11.90
2023-09-10T02:31:54.196Z,11.50
2023-09-10T02:34:29.243Z,12.30
2023-09-10T02:37:05.376Z,11.90
2023-09-10T02:39:42.441Z,12.00
2023-09-10T02:42:19.868Z,11.70
2023-09-10T02:44:56.125Z,12.10
2023-09-10T02:47:33.798Z,12.50
2023-09-10T02:50:13.451Z,12.90
2023-09-10T02:52:52.524Z,12.20
2023-09-10T02:55:26.756Z,12.60
2023-09-10T02:58:03.556Z,12.50
2023-09-10T03:00:39.128Z,12.30
2023-09-10T03:03:18.492Z,12.50
2023-09-10T03:05:54.087Z,13.00
2023-09-10T03:08:37.749Z,13.20
2023-09-10T03:11:16.674Z,13.10
2023-09-10T03:13:49.898Z,12.90
2023-09-10T03:16:26.891Z,13.70
2023-09-10T03:18:59.974Z,13.00
2023-09-10T03:21:35.685Z,13.40
2023-09-10T03:24:15.691Z,13.20
2023-09-10T03:26:56.211Z,13.10
2023-09-10T03:29:30.265Z,13.90
2023-09-10T03:32:08.179Z,13.40
2023-09-10T03:34:44.813Z,13.00
2023-09-10T03:37:22.070Z,13.30
2023-09-10T03:40:05.212Z,14.00
2023-09-10T03:42:39.789Z,13.40
2023-09-10T03:45:18.696Z,13.70
2023-09-10T03:47:54.497Z,14.00
2023-09-10T03:50:30.015Z,13.70
2023-09-10T03:53:06.157Z,14.00
2023-09-10T03:55:41.004Z,14.30
2023-09-10T03:58:14.417Z,13.60
2023-09-10T04:00:49.394Z,14.00
2023-09-10T04:03:27.523Z,14.70
2023-09-10T04:06:01.977Z,13.90
2023-09-10T04:08:37.802Z,14.20
2023-09-10T04:11:16.093Z,13.90
2023-09-10T04:13:49.719Z,14.30
2023-09-10T04:16:25.149Z,13.40
2023-09-10T04:18:58.635Z,14.60
2023-09-10T04:21:31.990Z,14.60
2023-09-10T04:24:07.718Z,13.90
2023-09-10T04:26:41.064Z,14.20
2023-09-10T04:29:14.164Z,13.80
2023-09-10T04:31:47.700Z,14.10
2023-09-10T04:34:20.898Z,13.70
2023-09-10T04:36:57.209Z,14.20
2023-09-10T04:39:30.935Z,13.90
2023-09-10T04:42:07.295Z,14.30
2023-09-10T04:44:41.946Z,14.40
2023-09-10T04:47:16.306Z,14.50
2023-09-10T04:49:49.672Z,14.00
2023-09-10T04:52:25.468Z,14.30
2023-09-10T04:54:59.103Z,14.20
2023-09-10T04:57:33.731Z,14.60
2023-09-10T05:00:18.735Z,14.50
2023-09-10T05:02:52.185Z,14.30
2023-09-10T05:05:25.735Z,14.00
2023-09-10T05:07:58.997Z,14.70
2023-09-10T05:10:33.798Z,14.20
2023-09-10T05:13:08.678Z,14.10
2023-09-10T05:15:42.590Z,14.30
2023-09-10T05:18:17.752Z,14.10
2023-09-10T05:20:55.093Z,14.00
2023-09-10T05:23:30.765Z,14.20
2023-09-10T05:26:08.778Z,14.40
2023-09-10T05:28:44.570Z,14.10
2023-09-10T05:31:22.129Z,14.10
2023-09-10T05:33:55.512Z,13.90
2023-09-10T05:36:31.186Z,14.10
2023-09-10T05:39:06.211Z,14.30
2023-09-10T05:41:39.799Z,13.90
2023-09-10T05:44:13.211Z,13.60
2023-09-10T05:46:47.826Z,13.90
2023-09-10T05:49:21.066Z,13.40
2023-09-10T05:51:54.183Z,13.80
2023-09-10T05:54:29.155Z,13.40
2023-09-10T05:57:03.230Z,14.30
2023-09-10T05:59:36.652Z,14.10
2023-09-10T06:02:10.370Z,13.40
2023-09-10T06:04:43.982Z,13.70
2023-09-10T06:07:17.139Z,13.30
2023-09-10T06:09:54.570Z,13.60
2023-09-10T06:12:30.413Z,13.50
2023-09-10T06:15:05.373Z,13.70
2023-09-10T06:17:40.052Z,14.00
2023-09-10T06:20:17.381Z,13.20
2023-09-10T06:22:55.399Z,13.80
2023-09-10T06:25:37.284Z,13.50
2023-09-10T06:28:11.214Z,13.90
2023-09-10T06:30:46.203Z,13.40
2023-09-10T06:33:20.881Z,14.00
2023-09-10T06:35:54.663Z,13.90
2023-09-10T06:38:29.257Z,13.70
2023-09-10T06:41:03.261Z,13.80
2023-09-10T06:43:39.199Z,13.60
2023-09-10T06:46:13.085Z,13.90
2023-09-10T06:48:48.660Z,13.80
2023-09-10T06:51:22.037Z,14.80
2023-09-10T06:53:58.059Z,13.90
2023-09-10T06:56:32.528Z,13.40
2023-09-10T06:59:06.872Z,13.50
2023-09-10T07:01:42.632Z,14.00
2023-09-10T07:04:25.738Z,13.90
2023-09-10T07:07:01.569Z,13.80
2023-09-10T07:09:37.287Z,13.70
2023-09-10T07:12:11.647Z,13.40
2023-09-10T07:14:45.733Z,13.90
2023-09-10T07:17:20.248Z,13.50
2023-09-10T07:19:55.756Z,13.30
2023-09-10T07:22:29.945Z,13.30
2023-09-10T07:25:03.397Z,13.50
2023-09-10T07:27:36.605Z,13.60
2023-09-10T07:30:12.562Z,13.20
2023-09-10T07:32:48.072Z,13.30
2023-09-10T07:35:21.781Z,12.90
2023-09-10T07:38:00.800Z,12.70
2023-09-10T07:40:34.724Z,13.10
2023-09-10T07:43:08.239Z,13.20
2023-09-10T07:45:42.613Z,13.20
2023-09-10T07:48:16.458Z,13.00
2023-09-10T07:51:01.349Z,13.30
2023-09-10T07:53:35.425Z,13.40
2023-09-10T07:56:09.960Z,13.20
2023-09-10T07:58:44.650Z,13.90
2023-09-10T08:01:18.121Z,13.80
2023-09-10T08:03:51.672Z,13.40
2023-09-10T08:06:25.236Z,14.20
2023-09-10T08:08:58.741Z,14.00
2023-09-10T08:11:32.104Z,13.50
2023-09-10T08:14:07.285Z,13.70
2023-09-10T08:16:41.622Z,14.00
2023-09-10T08:19:16.143Z,13.30
2023-09-10T08:21:51.644Z,13.20
2023-09-10T08:24:27.362Z,13.50
2023-09-10T08:27:05.567Z,12.70
2023-09-10T08:29:41.059Z,13.40
2023-09-10T08:32:17.243Z,13.10
2023-09-10T08:34:52.252Z,13.30
2023-09-10T08:37:28.472Z,13.70
2023-09-10T08:40:02.141Z,13.10
2023-09-10T08:42:46.762Z,13.60
2023-09-10T08:45:21.078Z,12.60
2023-09-10T08:48:01.470Z,13.10
2023-09-10T08:50:37.000Z,12.80
2023-09-10T08:53:16.134Z,12.70
2023-09-10T08:55:52.240Z,13.30
2023-09-10T08:58:27.769Z,13.00
2023-09-10T09:01:03.559Z,13.20
2023-09-10T09:03:39.358Z,13.30
2023-09-10T09:06:13.324Z,13.10
2023-09-10T09:08:53.575Z,12.60
2023-09-10T09:11:30.382Z,12.40
2023-09-10T09:14:09.899Z,12.50
2023-09-10T09:16:45.202Z,12.30
2023-09-10T09:19:20.931Z,12.10
2023-09-10T09:21:55.467Z,11.80
2023-09-10T09:24:32.476Z,11.90
2023-09-10T09:27:07.876Z,12.00
2023-09-10T09:29:43.352Z,11.60
2023-09-10T09:32:18.993Z,11.80
2023-09-10T09:34:53.629Z,11.40
2023-09-10T09:37:27.063Z,11.00
2023-09-10T09:40:00.200Z,11.30
2023-09-10T09:42:36.390Z,11.60
2023-09-10T09:45:15.001Z,11.00
2023-09-10T09:47:52.073Z,11.50
2023-09-10T09:50:31.138Z,10.60
2023-09-10T09:53:05.903Z,10.50
2023-09-10T09:55:39.103Z,10.20
2023-09-10T09:58:12.570Z,11.40
2023-09-10T10:00:49.240Z,11.10
2023-09-10T10:03:25.112Z,11.20
2023-09-10T10:05:59.182Z,10.50
2023-09-10T10:08:35.017Z,11.00
2023-09-10T10:11:08.927Z,11.60
2023-09-10T10:13:42.947Z,10.50
2023-09-10T10:16:16.549Z,10.60
2023-09-10T10:18:50.780Z,10.90
2023-09-10T10:21:25.341Z,10.70
2023-09-10T10:24:01.380Z,10.20
2023-09-10T10:26:38.188Z,10.00
2023-09-10T10:29:12.146Z,10.40
2023-09-10T10:31:54.364Z,10.90
2023-09-10T10:34:30.382Z,10.80
2023-09-10T10:37:17.170Z,10.40
2023-09-10T10:40:08.962Z,10.90
2023-09-10T10:42:53.165Z,10.50
2023-09-10T10:45:30.295Z,10.30
2023-09-10T10:48:21.519Z,9.80
2023-09-10T10:51:03.947Z,10.50
2023-09-10T10:53:38.503Z,10.40
2023-09-10T10:56:17.590Z,10.00
2023-09-10T10:58:52.329Z,10.40
2023-09-10T11:01:29.081Z,10.10
2023-09-10T11:04:23.070Z,10.30
2023-09-10T11:07:31.812Z,11.10
2023-09-10T11:10:42.831Z,10.20
2023-09-10T11:13:20.182Z,10.10
2023-09-10T11:16:21.217Z,10.60
2023-09-10T11:18:57.143Z,10.20
2023-09-10T11:22:06.684Z,10.80
2023-09-10T11:24:42.282Z,10.70
2023-09-10T11:27:28.236Z,11.40
2023-09-10T11:30:25.042Z,10.20
2023-09-10T11:33:38.578Z,10.30
2023-09-10T11:36:15.586Z,10.90
2023-09-10T11:38:50.226Z,12.30
2023-09-10T11:41:28.429Z,9.90
2023-09-10T11:44:05.453Z,11.00
2023-09-10T11:46:41.298Z,10.50
2023-09-10T11:49:20.456Z,10.30
2023-09-10T11:51:56.112Z,11.40
2023-09-10T11:54:32.810Z,10.80
2023-09-10T11:57:08.592Z,11.90
2023-09-10T11:59:42.475Z,10.90
2023-09-10T12:02:16.403Z,11.40
2023-09-10T12:04:54.033Z,10.60
2023-09-10T12:07:28.402Z,11.90
2023-09-10T12:10:02.953Z,11.10
2023-09-10T12:12:40.127Z,9.70
2023-09-10T12:15:17.307Z,10.80
2023-09-10T12:17:53.140Z,12.20
2023-09-10T12:20:33.555Z,10.70
2023-09-10T12:23:11.499Z,11.30
2023-09-10T12:25:47.260Z,11.00
2023-09-10T12:28:20.596Z,11.40
2023-09-10T12:30:54.850Z,10.10
2023-09-10T12:33:31.597Z,10.60
2023-09-10T12:36:09.609Z,12.90
2023-09-10T12:38:48.490Z,12.00
2023-09-10T12:41:22.656Z,11.10
2023-09-10T12:44:01.362Z,11.10
2023-09-10T12:46:37.943Z,11.40
2023-09-10T12:49:11.243Z,11.90
2023-09-10T12:51:45.844Z,11.10
2023-09-10T12:54:25.613Z,12.90
2023-09-10T12:57:04.794Z,12.60
2023-09-10T12:59:41.165Z,11.80
2023-09-10T13:02:17.948Z,11.30
2023-09-10T13:04:51.463Z,11.40
2023-09-10T13:07:27.184Z,13.70
2023-09-10T13:10:00.819Z,14.00
2023-09-10T13:12:35.569Z,12.40
2023-09-10T13:15:16.410Z,11.90
2023-09-10T13:17:50.093Z,12.90
2023-09-10T13:20:25.261Z,11.00
2023-09-10T13:22:58.947Z,10.90
2023-09-10T13:25:32.611Z,12.90
2023-09-10T13:28:06.609Z,11.70
2023-09-10T13:30:41.643Z,12.00
2023-09-10T13:33:15.149Z,13.00
2023-09-10T13:35:48.585Z,11.80
2023-09-10T13:38:24.449Z,12.20
2023-09-10T13:40:58.565Z,12.60
2023-09-10T13:43:32.553Z,12.80
2023-09-10T13:46:05.662Z,11.90
2023-09-10T13:48:39.484Z,11.20
2023-09-10T13:51:12.737Z,12.10
2023-09-10T13:53:47.482Z,11.00
2023-09-10T13:56:22.135Z,11.70
2023-09-10T13:58:55.670Z,11.70
2023-09-10T14:01:29.696Z,12.40
2023-09-10T14:04:08.078Z,10.10
2023-09-10T14:06:44.069Z,11.20
2023-09-10T14:09:19.645Z,11.00
2023-09-10T14:11:56.463Z,12.20
2023-09-10T14:14:29.650Z,11.40
2023-09-10T14:17:03.005Z,12.20
2023-09-10T14:19:36.255Z,11.50
2023-09-10T14:22:10.415Z,11.80
2023-09-10T14:24:43.549Z,11.90
2023-09-10T14:27:16.984Z,13.90
2023-09-10T14:29:51.404Z,12.80
2023-09-10T14:32:29.646Z,12.20
2023-09-10T14:35:03.095Z,11.00
2023-09-10T14:37:38.762Z,11.80
2023-09-10T14:40:20.628Z,11.80
2023-09-10T14:42:53.839Z,11.10
2023-09-10T14:45:27.406Z,12.00
2023-09-10T14:48:00.584Z,11.20
2023-09-10T14:50:36.698Z,12.70
2023-09-10T14:53:12.706Z,10.70
2023-09-10T14:55:46.404Z,11.80
2023-09-10T14:58:19.717Z,11.20
2023-09-10T15:00:53.546Z,12.10
2023-09-10T15:03:27.096Z,10.80
2023-09-10T15:06:00.510Z,11.70
2023-09-10T15:08:33.893Z,11.90
2023-09-10T15:11:10.428Z,12.60
2023-09-10T15:13:46.260Z,11.20
2023-09-10T15:16:21.857Z,10.80
2023-09-10T15:18:57.250Z,11.30
2023-09-10T15:21:30.409Z,11.10
2023-09-10T15:24:03.818Z,10.20
2023-09-10T15:26:37.220Z,13.40
2023-09-10T15:29:13.157Z,12.00
2023-09-10T15:31:47.563Z,12.60
2023-09-10T15:34:22.093Z,12.90
2023-09-10T15:36:55.248Z,12.00
2023-09-10T15:39:32.656Z,10.70
2023-09-10T15:42:09.726Z,10.80
2023-09-10T15:44:43.281Z,11.20
2023-09-10T15:47:16.863Z,11.40
2023-09-10T15:49:50.800Z,12.00
2023-09-10T15:52:28.575Z,10.80
2023-09-10T15:55:13.146Z,12.40
2023-09-10T15:57:57.046Z,12.40
2023-09-10T16:00:38.069Z,13.50
2023-09-10T16:03:20.812Z,12.60
2023-09-10T16:06:02.223Z,10.40
2023-09-10T16:08:38.330Z,11.00
2023-09-10T16:11:15.253Z,10.80
2023-09-10T16:13:50.731Z,12.20
2023-09-10T16:16:24.180Z,11.00
2023-09-10T16:18:59.918Z,9.50
2023-09-10T16:21:34.602Z,11.40
2023-09-10T16:24:12.498Z,10.50
2023-09-10T16:26:45.740Z,11.20
2023-09-10T16:29:19.510Z,10.90
2023-09-10T16:31:52.894Z,12.10
2023-09-10T16:34:26.450Z,10.30
2023-09-10T16:37:00.544Z,11.10
2023-09-10T16:39:35.681Z,10.50
2023-09-10T16:42:09.673Z,10.40
2023-09-10T16:44:43.312Z,9.60
2023-09-10T16:47:16.632Z,10.40
2023-09-10T16:49:56.166Z,11.40
2023-09-10T16:52:29.423Z,12.30
2023-09-10T16:55:06.206Z,11.40
2023-09-10T16:57:39.597Z,12.10
2023-09-10T17:00:18.107Z,11.80
2023-09-10T17:02:51.865Z,12.90
2023-09-10T17:05:25.585Z,12.30
2023-09-10T17:08:07.592Z,12.00
2023-09-10T17:10:41.441Z,12.10
2023-09-10T17:13:16.451Z,12.20
2023-09-10T17:15:51.542Z,12.00
2023-09-10T17:18:24.784Z,12.40
2023-09-10T17:21:00.639Z,12.40
2023-09-10T17:23:37.944Z,13.60
2023-09-10T17:26:12.115Z,13.10
2023-09-10T17:28:48.886Z,12.60
2023-09-10T17:31:22.586Z,12.70
2023-09-10T17:33:55.736Z,11.70
2023-09-10T17:36:29.311Z,12.00
2023-09-10T17:39:03.355Z,11.50
2023-09-10T17:41:44.147Z,11.80
2023-09-10T17:44:19.926Z,11.60
2023-09-10T17:47:00.225Z,11.10
2023-09-10T17:49:35.359Z,11.70
2023-09-10T17:52:15.479Z,10.50
2023-09-10T17:54:55.634Z,12.00
2023-09-10T17:57:40.367Z,11.10
2023-09-10T18:00:23.803Z,10.60
2023-09-10T18:03:10.237Z,11.30
2023-09-10T18:05:49.193Z,11.00
2023-09-10T18:08:22.787Z,10.40
2023-09-10T18:11:09.077Z,11.10
2023-09-10T18:13:46.332Z,11.20
2023-09-10T18:16:20.332Z,11.10
2023-09-10T18:18:56.015Z,12.30
2023-09-10T18:21:29.806Z,10.70
2023-09-10T18:24:04.698Z,11.30
2023-09-10T18:26:37.919Z,10.10
2023-09-10T18:29:17.111Z,11.20
2023-09-10T18:31:51.818Z,11.60
2023-09-10T18:34:31.404Z,10.80
2023-09-10T18:37:07.555Z,10.30
2023-09-10T18:39:54.682Z,12.40
2023-09-10T18:42:29.161Z,13.10
2023-09-10T18:45:02.512Z,9.90
2023-09-10T18:47:43.828Z,9.60
2023-09-10T18:50:35.136Z,10.00
2023-09-10T18:53:09.864Z,10.30
2023-09-10T18:55:50.095Z,11.20
2023-09-10T18:58:24.531Z,10.70
2023-09-10T19:00:59.561Z,10.80
2023-09-10T19:03:47.465Z,11.10
2023-09-10T19:06:21.128Z,9.60
2023-09-10T19:09:03.961Z,10.20
2023-09-10T19:11:59.360Z,10.70
2023-09-10T19:14:53.112Z,10.90
2023-09-10T19:17:26.907Z,10.70
2023-09-10T19:20:02.560Z,9.90
2023-09-10T19:22:38.867Z,10.60
2023-09-10T19:25:21.745Z,10.20
2023-09-10T19:27:55.192Z,10.00
2023-09-10T19:30:30.860Z,9.40
2023-09-10T19:33:18.969Z,9.70
2023-09-10T19:36:09.886Z,11.10
2023-09-10T19:38:45.226Z,10.00
2023-09-10T19:41:20.588Z,10.30
2023-09-10T19:44:11.466Z,10.80
2023-09-10T19:46:59.391Z,10.30
2023-09-10T19:49:48.167Z,10.20
2023-09-10T19:52:23.534Z,9.30
2023-09-10T19:55:09.062Z,11.20
2023-09-10T19:57:44.369Z,10.70
2023-09-10T20:00:20.677Z,9.50
2023-09-10T20:02:54.349Z,9.50
2023-09-10T20:05:30.837Z,9.40
2023-09-10T20:08:07.787Z,9.80
2023-09-10T20:10:48.276Z,10.70
2023-09-10T20:13:41.845Z,9.50
2023-09-10T20:16:16.490Z,10.10
2023-09-10T20:18:52.168Z,10.10
2023-09-10T20:21:34.761Z,9.80
2023-09-10T20:24:16.595Z,9.80
2023-09-10T20:27:04.924Z,9.50
2023-09-10T20:29:41.432Z,9.80
2023-09-10T20:32:15.045Z,10.40
2023-09-10T20:34:50.881Z,10.40
2023-09-10T20:37:39.156Z,9.80
2023-09-10T20:40:17.883Z,9.00
2023-09-10T20:43:05.324Z,10.70
2023-09-10T20:45:39.994Z,10.40
2023-09-10T20:48:14.266Z,10.00
2023-09-10T20:50:48.861Z,9.30
2023-09-10T20:53:22.562Z,9.70
2023-09-10T20:56:06.738Z,10.70
2023-09-10T20:58:40.567Z,8.60
2023-09-10T21:01:19.877Z,10.20
2023-09-10T21:04:03.534Z,9.60
2023-09-10T21:06:39.767Z,9.90
2023-09-10T21:09:23.862Z,9.40
2023-09-10T21:12:01.121Z,9.80
2023-09-10T21:14:45.669Z,10.90
2023-09-10T21:17:38.686Z,10.50
2023-09-10T21:20:16.489Z,9.50
2023-09-10T21:22:51.645Z,9.90
2023-09-10T21:25:42.741Z,9.60
2023-09-10T21:28:19.827Z,10.80
2023-09-10T21:30:58.862Z,9.60
2023-09-10T21:33:35.949Z,9.70
2023-09-10T21:36:13.933Z,10.50
2023-09-10T21:38:47.269Z,9.30
2023-09-10T21:41:20.987Z,11.20
2023-09-10T21:43:59.126Z,9.60
2023-09-10T21:46:44.334Z,10.00
2023-09-10T21:49:20.308Z,10.60
2023-09-10T21:51:57.136Z,10.50
2023-09-10T21:54:38.533Z,9.40
2023-09-10T21:57:13.994Z,10.00
2023-09-10T21:59:49.817Z,9.70
2023-09-10T22:02:37.101Z,10.40
2023-09-10T22:05:15.557Z,10.40
2023-09-10T22:07:49.572Z,10.40
2023-09-10T22:10:24.934Z,9.70
2023-09-10T22:13:23.757Z,9.80
2023-09-10T22:15:59.679Z,10.40
2023-09-10T22:18:48.719Z,9.60
2023-09-10T22:21:21.878Z,10.10
2023-09-10T22:23:55.387Z,10.00
2023-09-10T22:26:31.476Z,9.80
2023-09-10T22:29:10.549Z,9.30
2023-09-10T22:31:44.194Z,10.30
2023-09-10T22:34:20.690Z,8.50
2023-09-10T22:36:55.413Z,9.70
2023-09-10T22:39:33.601Z,8.80
2023-09-10T22:42:08.777Z,9.20
2023-09-10T22:44:42.200Z,8.30
2023-09-10T22:47:16.302Z,8.40
2023-09-10T22:49:53.526Z,8.80
2023-09-10T22:52:27.501Z,9.90
2023-09-10T22:55:11.344Z,9.30
2023-09-10T22:57:58.329Z,8.80
2023-09-10T23:00:32.320Z,8.80
2023-09-10T23:03:05.934Z,9.10
2023-09-10T23:05:39.430Z,9.20
2023-09-10T23:08:13.270Z,9.60
2023-09-10T23:11:00.653Z,10.70
2023-09-10T23:13:49.900Z,9.50
2023-09-10T23:16:24.599Z,9.90
2023-09-10T23:18:58.660Z,8.90
2023-09-10T23:21:32.031Z,10.20
2023-09-10T23:24:05.676Z,10.50
2023-09-10T23:26:40.919Z,9.40
2023-09-10T23:29:28.160Z,8.90
2023-09-10T23:32:02.162Z,10.50
2023-09-10T23:34:39.714Z,11.70
2023-09-10T23:37:13.454Z,10.60
2023-09-10T23:39:47.386Z,10.80
2023-09-10T23:42:25.720Z,9.10
2023-09-10T23:45:00.426Z,8.90
2023-09-10T23:47:34.310Z,9.40
2023-09-10T23:50:15.824Z,9.70
2023-09-10T23:52:52.734Z,9.20
2023-09-10T23:55:40.198Z,9.90
2023-09-10T23:58:20.789Z,9.00
